Conesus, New York
Current Conditions -  °F | °C
As of 7:54 PM on Friday 24 Oct 2014 (Local Time) from KDSV Reporting Station
Clear Clear  
Wind Chill: 48°   Ceiling: Unl
Heat Index: 48°   Visibility: 10mi
Dew Point: 34°   Wind: 0mph
Humidity: 58%   Direction: NA
Pressure: 29.96"   Gusts: NA
Location:  42.72°N, 77.68°W
Report Text: KDSV 242354Z AUTO 00000KT 10SM CLR 09/01 A2996 RMK AO2 SLP158 T00890011 10172 20078 53009
Loading
Personal Weather Stations






























Interactive Weather Map
Tropical Storm Tracking
New forecast layout! Learn more

10-Day Weather Forecast

Advertisements
Track Severe Weather on mobile